Ginys del Meteocat

Dades de l'estació automàtica Gurb

?
?
Resum diari 21:30 TU
Dades diàries de l'estació meteorològica
Temperatura mitjana 3.6 °C
Temperatura màxima 8.1 °C 15:46 TU
Temperatura mínima 1.7 °C 1:04 TU
Humitat relativa mitjana 98%
Precipitació acumulada 0.2 mm
Ratxa màxima del vent (2 m) 7.9 km/h - 65º 10:29 TU
Irradiació solar global 5.1 MJ/m2

El tram horari està expressat en Temps Universal (TU). Cal sumar una hora en horari d'hivern i dues en horari d'estiu per passar a l'hora oficial.

Gurb

Metadades estació meteorol´gica
Municipi Gurb
Comarca Osona
Altitud 509 m
Data alta 31.03.1999
Estat actual Operativa
Dades de període
Període
TU
TM
°C
TX
°C
TN
°C
HRM
%
PPT
mm
VVM (2 m)
km/h
DVM (2 m)
graus
VVX (2 m)
km/h
RS
W/m2
00:00 - 00:30 2.3 2.7 1.8 100 0.0 2.2 350 4.3 0
00:30 - 01:00 2.3 2.5 1.9 100 0.0 0.0 316 1.1 0
01:00 - 01:30 2.0 2.3 1.7 100 0.0 0.4 227 2.5 0
01:30 - 02:00 2.4 2.6 2.3 100 0.0 0.0 50 1.1 0
02:00 - 02:30 2.5 2.7 2.4 100 0.0 2.9 42 4.7 0
02:30 - 03:00 2.5 2.6 2.4 100 0.0 3.2 1 4.7 0
03:00 - 03:30 2.7 2.7 2.6 100 0.1 3.2 37 5.4 0
03:30 - 04:00 2.5 2.6 2.4 100 0.0 2.5 82 5.0 0
04:00 - 04:30 2.5 2.6 2.3 100 0.0 2.2 133 4.0 0
04:30 - 05:00 2.5 2.6 2.4 100 0.0 2.2 205 4.7 0
05:00 - 05:30 2.3 2.4 2.1 100 0.0 2.2 230 4.7 0
05:30 - 06:00 2.1 2.1 2.1 100 0.0 2.2 231 3.6 0
06:00 - 06:30 2.1 2.2 2.1 100 0.0 0.7 259 5.4 0
06:30 - 07:00 2.1 2.1 2.1 100 0.0 1.8 338 4.0 0
07:00 - 07:30 2.1 2.1 2.0 100 0.1 1.1 335 4.0 3
07:30 - 08:00 2.0 2.1 1.9 100 0.0 2.9 17 6.1 14
08:00 - 08:30 1.9 2.0 1.9 100 0.0 2.2 23 5.8 35
08:30 - 09:00 1.9 2.1 1.9 100 0.0 2.5 41 6.8 51
09:00 - 09:30 2.1 2.5 1.9 100 0.0 2.5 104 6.1 81
09:30 - 10:00 2.3 2.7 2.1 100 0.0 2.5 166 6.5 92
10:00 - 10:30 2.4 2.6 2.3 100 0.0 2.5 64 7.9 120
10:30 - 11:00 2.6 2.8 2.4 100 0.0 1.8 43 7.2 153
11:00 - 11:30 3.1 3.3 2.7 100 0.0 0.7 121 4.3 186
11:30 - 12:00 3.3 3.7 3.1 100 0.0 1.8 55 4.7 185
12:00 - 12:30 3.9 4.2 3.5 100 0.0 1.4 56 6.8 204
12:30 - 13:00 4.1 4.3 4.0 100 0.0 2.2 68 6.1 218
13:00 - 13:30 4.7 5.1 4.4 100 0.0 1.8 31 5.8 245
13:30 - 14:00 5.8 6.4 5.1 100 0.0 1.8 83 4.7 361
14:00 - 14:30 6.5 6.8 6.3 100 0.0 2.9 59 7.2 302
14:30 - 15:00 6.9 7.3 6.7 98 0.0 2.9 65 6.1 258
15:00 - 15:30 7.5 7.9 7.2 94 0.0 3.6 38 6.5 180
15:30 - 16:00 8.0 8.1 7.8 90 0.0 2.2 5 5.8 138
16:00 - 16:30 7.4 8.0 6.9 90 0.0 2.2 332 5.4 51
16:30 - 17:00 6.8 6.9 6.1 86 0.0 1.8 281 2.9 7
17:00 - 17:30 6.3 6.5 5.9 86 0.0 0.0 349 1.4 0
17:30 - 18:00 5.5 6.1 5.1 91 0.0 1.1 346 3.6 0
18:00 - 18:30 5.2 5.8 4.8 91 0.0 1.4 310 3.6 0
18:30 - 19:00 5.0 5.5 4.2 92 0.0 1.1 328 3.2 0
19:00 - 19:30 4.0 4.2 3.8 96 0.0 0.0 247 2.2 0
19:30 - 20:00 3.9 4.4 3.3 97 0.0 0.4 340 1.8 0
20:00 - 20:30 3.3 3.8 2.6 98 0.0 0.4 345 1.8 0
20:30 - 21:00 2.8 3.0 2.7 99 0.0 1.8 335 5.8 0
21:00 - 21:30 3.3 3.8 2.9 99 0.0 0.7 321 3.6 0
21:30 - 22:00 2.6 3.3 2.3 98 0.0 0.7 245 2.9 0

Les dades en taronja només han passat un control de qualitat automàtic. Resta pendent la seva validació definitiva.